createdAt,value
2022-10-18T00:01:08.099Z,7.80
2022-10-18T00:03:35.772Z,16.38
2022-10-18T00:06:02.590Z,40.43
2022-10-18T00:08:29.653Z,22.70
2022-10-18T00:10:57.004Z,39.63
2022-10-18T00:13:24.385Z,21.25
2022-10-18T00:15:57.188Z,43.67
2022-10-18T00:18:24.041Z,21.07
2022-10-18T00:21:07.678Z,28.70
2022-10-18T00:23:35.638Z,15.27
2022-10-18T00:26:06.764Z,12.55
2022-10-18T00:28:34.678Z,19.67
2022-10-18T00:31:21.813Z,16.80
2022-10-18T00:33:52.970Z,26.20
2022-10-18T00:36:20.446Z,17.33
2022-10-18T00:38:47.925Z,13.82
2022-10-18T00:41:18.048Z,11.30
2022-10-18T00:44:06.257Z,24.23
2022-10-18T00:46:38.444Z,22.73
2022-10-18T00:49:11.278Z,20.90
2022-10-18T00:51:48.329Z,47.28
2022-10-18T00:54:17.011Z,50.78
2022-10-18T00:56:44.999Z,25.83
2022-10-18T00:59:13.513Z,7.10
2022-10-18T01:01:40.082Z,13.32
2022-10-18T01:04:06.745Z,17.40
2022-10-18T01:06:42.099Z,47.30
2022-10-18T01:09:28.994Z,38.40
2022-10-18T01:12:09.045Z,37.78
2022-10-18T01:15:11.479Z,28.80
2022-10-18T01:17:59.729Z,10.73
2022-10-18T01:20:54.080Z,14.57
2022-10-18T01:23:32.964Z,13.30
2022-10-18T01:26:17.426Z,12.50
2022-10-18T01:29:14.729Z,43.83
2022-10-18T01:31:46.921Z,21.60
2022-10-18T01:34:17.549Z,27.55
2022-10-18T01:36:48.772Z,10.83
2022-10-18T01:39:21.951Z,43.35
2022-10-18T01:41:51.481Z,49.92
2022-10-18T01:44:26.397Z,46.72
2022-10-18T01:46:56.202Z,21.83
2022-10-18T01:49:24.983Z,8.67
2022-10-18T01:51:51.439Z,26.25
2022-10-18T01:54:24.068Z,11.80
2022-10-18T01:57:11.968Z,25.70
2022-10-18T01:59:51.808Z,11.23
2022-10-18T02:02:31.234Z,20.27
2022-10-18T02:05:14.307Z,14.20
2022-10-18T02:08:12.299Z,22.88
2022-10-18T02:10:51.222Z,28.33
2022-10-18T02:13:21.402Z,14.00
2022-10-18T02:15:52.376Z,47.90
2022-10-18T02:18:25.566Z,52.58
2022-10-18T02:20:53.008Z,25.08
2022-10-18T02:23:22.955Z,16.52
2022-10-18T02:25:50.307Z,106.60
2022-10-18T02:28:16.936Z,72.10
2022-10-18T02:31:04.680Z,72.45
2022-10-18T02:33:38.474Z,47.85
2022-10-18T02:36:15.370Z,44.75
2022-10-18T02:38:44.729Z,22.08
2022-10-18T02:41:11.308Z,6.97
2022-10-18T02:43:39.960Z,16.05
2022-10-18T02:46:06.635Z,23.17
2022-10-18T02:48:33.316Z,7.72
2022-10-18T02:50:59.797Z,16.25
2022-10-18T02:53:26.382Z,17.67
2022-10-18T02:55:53.252Z,19.98
2022-10-18T02:58:19.926Z,23.02
2022-10-18T03:00:49.947Z,7.07
2022-10-18T03:03:17.197Z,11.48
2022-10-18T03:05:43.794Z,9.77
2022-10-18T03:08:10.602Z,14.80
2022-10-18T03:10:37.345Z,8.48
2022-10-18T03:13:03.941Z,6.97
2022-10-18T03:15:30.503Z,7.03
2022-10-18T03:17:56.994Z,20.83
2022-10-18T03:20:26.196Z,5.95
2022-10-18T03:22:52.948Z,7.45
2022-10-18T03:25:19.602Z,7.07
2022-10-18T03:27:46.236Z,6.35
2022-10-18T03:30:13.831Z,7.60
2022-10-18T03:32:40.582Z,6.55
2022-10-18T03:35:08.404Z,8.73
2022-10-18T03:37:35.765Z,17.58
2022-10-18T03:40:03.167Z,6.30
2022-10-18T03:42:30.186Z,5.60
2022-10-18T03:44:57.055Z,6.60
2022-10-18T03:47:23.848Z,5.50
2022-10-18T03:49:53.215Z,5.80
2022-10-18T03:52:22.848Z,6.25
2022-10-18T03:54:49.410Z,5.27
2022-10-18T03:57:16.024Z,5.35
2022-10-18T03:59:42.586Z,5.03
2022-10-18T04:02:09.237Z,4.82
2022-10-18T04:04:35.733Z,6.00
2022-10-18T04:07:02.333Z,5.40
2022-10-18T04:09:28.866Z,5.15
2022-10-18T04:11:55.463Z,6.80
2022-10-18T04:14:22.170Z,4.95
2022-10-18T04:16:48.836Z,7.00
2022-10-18T04:19:15.566Z,5.90
2022-10-18T04:21:42.232Z,4.85
2022-10-18T04:24:11.544Z,6.93
2022-10-18T04:26:38.085Z,5.65
2022-10-18T04:29:04.879Z,5.35
2022-10-18T04:31:31.837Z,9.93
2022-10-18T04:33:58.500Z,8.32
2022-10-18T04:36:25.006Z,7.00
2022-10-18T04:38:51.555Z,6.95
2022-10-18T04:41:18.162Z,4.68
2022-10-18T04:46:12.302Z,7.63
2022-10-18T04:48:41.779Z,6.00
2022-10-18T04:51:08.262Z,9.77
2022-10-18T04:53:34.790Z,9.93
2022-10-18T04:56:01.367Z,7.13
2022-10-18T04:58:28.023Z,10.80
2022-10-18T05:00:54.486Z,7.22
2022-10-18T05:03:21.083Z,5.45
2022-10-18T05:06:01.436Z,5.88
2022-10-18T05:08:29.302Z,4.37
2022-10-18T05:10:55.855Z,5.35
2022-10-18T05:13:22.326Z,6.35
2022-10-18T05:15:49.015Z,7.38
2022-10-18T05:18:15.830Z,5.72
2022-10-18T05:20:42.310Z,12.80
2022-10-18T05:23:11.444Z,5.40
2022-10-18T05:25:40.885Z,3.50
2022-10-18T05:28:10.827Z,8.38
2022-10-18T05:30:47.945Z,4.82
2022-10-18T05:33:15.186Z,7.83
2022-10-18T05:35:41.814Z,10.40
2022-10-18T05:38:08.563Z,16.40
2022-10-18T05:40:39.679Z,15.98
2022-10-18T05:43:06.434Z,26.77
2022-10-18T05:45:33.014Z,28.73
2022-10-18T05:48:00.302Z,17.80
2022-10-18T05:50:26.885Z,6.45
2022-10-18T05:53:06.746Z,7.50
2022-10-18T05:55:39.155Z,10.15
2022-10-18T05:58:05.712Z,20.37
2022-10-18T06:00:32.348Z,32.60
2022-10-18T06:03:00.371Z,18.67
2022-10-18T06:05:27.641Z,42.50
2022-10-18T06:07:54.376Z,40.25
2022-10-18T06:10:20.921Z,54.87
2022-10-18T06:12:47.566Z,17.15
2022-10-18T06:15:14.224Z,39.90
2022-10-18T06:17:41.361Z,44.38
2022-10-18T06:20:08.746Z,42.80
2022-10-18T06:22:35.278Z,31.43
2022-10-18T06:25:01.890Z,30.20
2022-10-18T06:27:28.416Z,36.80
2022-10-18T06:29:55.618Z,53.40
2022-10-18T06:32:22.355Z,42.50
2022-10-18T06:34:48.999Z,67.20
2022-10-18T06:37:15.699Z,32.75
2022-10-18T06:39:42.313Z,54.05
2022-10-18T06:42:08.909Z,56.10
2022-10-18T06:44:35.741Z,51.00
2022-10-18T06:47:02.388Z,38.47
2022-10-18T06:49:29.362Z,34.88
2022-10-18T06:51:56.052Z,38.00
2022-10-18T06:54:23.746Z,58.45
2022-10-18T06:56:50.699Z,74.38
2022-10-18T06:59:18.409Z,45.90
2022-10-18T07:01:45.026Z,49.30
2022-10-18T07:04:11.985Z,57.67
2022-10-18T07:06:46.381Z,55.75
2022-10-18T07:09:12.959Z,55.85
2022-10-18T07:11:41.627Z,31.50
2022-10-18T07:14:09.558Z,19.25
2022-10-18T07:16:40.148Z,6.47
2022-10-18T07:19:06.828Z,5.80
2022-10-18T07:21:35.099Z,14.98
2022-10-18T07:24:04.646Z,10.97
2022-10-18T07:26:33.392Z,9.30
2022-10-18T07:29:08.702Z,7.00
2022-10-18T07:31:35.727Z,10.15
2022-10-18T07:34:04.963Z,10.20
2022-10-18T07:36:33.953Z,15.73
2022-10-18T07:39:00.970Z,6.32
2022-10-18T07:41:29.341Z,5.45
2022-10-18T07:43:56.154Z,8.57
2022-10-18T07:46:23.305Z,5.85
2022-10-18T07:48:51.920Z,13.60
2022-10-18T07:51:20.315Z,7.63
2022-10-18T07:53:47.228Z,24.45
2022-10-18T07:56:16.619Z,11.88
2022-10-18T07:58:44.775Z,7.28
2022-10-18T08:01:12.981Z,4.13
2022-10-18T08:03:44.958Z,4.55
2022-10-18T08:06:14.749Z,3.63
2022-10-18T08:08:44.843Z,6.97
2022-10-18T08:11:19.646Z,3.08
2022-10-18T08:13:47.191Z,5.70
2022-10-18T08:16:18.458Z,4.90
2022-10-18T08:18:45.596Z,5.13
2022-10-18T08:21:13.699Z,3.45
2022-10-18T08:23:41.100Z,5.90
2022-10-18T08:26:12.387Z,3.00
2022-10-18T08:28:46.022Z,4.05
2022-10-18T08:31:20.524Z,3.42
2022-10-18T08:33:48.786Z,3.85
2022-10-18T08:36:18.555Z,5.97
2022-10-18T08:38:45.215Z,4.23
2022-10-18T08:41:23.075Z,3.33
2022-10-18T08:43:52.663Z,3.72
2022-10-18T08:46:19.441Z,3.08
2022-10-18T08:48:50.199Z,10.43
2022-10-18T08:51:30.168Z,3.60
2022-10-18T08:54:06.825Z,8.32
2022-10-18T08:56:33.977Z,3.45
2022-10-18T08:59:05.852Z,3.40
2022-10-18T09:01:58.285Z,4.80
2022-10-18T09:04:44.742Z,5.03
2022-10-18T09:07:56.530Z,6.40
2022-10-18T09:10:44.248Z,5.50
2022-10-18T09:13:26.965Z,3.67
2022-10-18T09:16:00.082Z,4.20
2022-10-18T09:18:48.399Z,4.67
2022-10-18T09:21:20.998Z,3.78
2022-10-18T09:23:52.268Z,8.63
2022-10-18T09:26:22.777Z,4.88
2022-10-18T09:29:27.213Z,5.40
2022-10-18T09:32:08.326Z,8.27
2022-10-18T09:34:50.820Z,5.22
2022-10-18T09:37:20.916Z,3.65
2022-10-18T09:39:50.480Z,5.93
2022-10-18T09:42:41.840Z,8.05
2022-10-18T09:45:29.846Z,5.50
2022-10-18T09:48:27.868Z,6.88
2022-10-18T09:51:03.422Z,12.50
2022-10-18T09:54:11.774Z,9.98
2022-10-18T09:56:50.107Z,5.55
2022-10-18T09:59:20.674Z,6.00
2022-10-18T10:01:47.273Z,4.40
2022-10-18T10:04:15.530Z,11.88
2022-10-18T10:06:50.170Z,9.70
2022-10-18T10:09:21.152Z,6.93
2022-10-18T10:11:50.027Z,6.40
2022-10-18T10:14:23.690Z,4.18
2022-10-18T10:16:54.052Z,6.47
2022-10-18T10:19:39.880Z,3.95
2022-10-18T10:22:10.535Z,1.80
2022-10-18T10:24:53.303Z,3.57
2022-10-18T10:27:21.803Z,4.13
2022-10-18T10:29:51.557Z,4.82
2022-10-18T10:32:21.093Z,2.15
2022-10-18T10:34:47.862Z,6.10
2022-10-18T10:37:26.436Z,4.73
2022-10-18T10:40:17.844Z,3.13
2022-10-18T10:43:08.987Z,5.40
2022-10-18T10:46:09.922Z,5.10
2022-10-18T10:48:47.275Z,4.50
2022-10-18T10:51:16.125Z,4.43
2022-10-18T10:53:57.598Z,4.50
2022-10-18T10:56:28.716Z,4.07
2022-10-18T10:59:01.960Z,5.30
2022-10-18T11:01:32.663Z,3.92
2022-10-18T11:04:03.462Z,3.23
2022-10-18T11:06:43.027Z,5.70
2022-10-18T11:09:24.490Z,3.17
2022-10-18T11:12:03.825Z,5.75
2022-10-18T11:14:36.888Z,2.45
2022-10-18T11:17:07.750Z,5.07
2022-10-18T11:19:55.793Z,4.28
2022-10-18T11:22:27.743Z,4.50
2022-10-18T11:24:54.544Z,2.35
2022-10-18T11:27:38.086Z,5.45
2022-10-18T11:30:37.789Z,5.37
2022-10-18T11:33:11.938Z,5.00
2022-10-18T11:36:04.608Z,4.35
2022-10-18T11:38:59.222Z,4.07
2022-10-18T11:41:34.835Z,4.28
2022-10-18T11:44:17.067Z,2.73
2022-10-18T11:47:07.317Z,4.10
2022-10-18T11:49:42.659Z,3.80
2022-10-18T11:52:12.296Z,2.67
2022-10-18T11:54:56.383Z,3.10
2022-10-18T11:57:34.704Z,4.07
2022-10-18T12:00:14.908Z,3.10
2022-10-18T12:03:15.763Z,5.80
2022-10-18T12:05:51.469Z,1.75
2022-10-18T12:08:47.492Z,3.58
2022-10-18T12:11:22.400Z,6.73
2022-10-18T12:13:55.372Z,4.82
2022-10-18T12:16:45.457Z,2.08
2022-10-18T12:19:23.594Z,6.10
2022-10-18T12:21:54.124Z,3.38
2022-10-18T12:24:25.331Z,2.47
2022-10-18T12:26:57.416Z,2.88
2022-10-18T12:29:40.240Z,6.60
2022-10-18T12:32:13.606Z,3.13
2022-10-18T12:34:50.853Z,4.55
2022-10-18T12:37:38.327Z,4.20
2022-10-18T12:40:21.449Z,2.38
2022-10-18T12:42:51.276Z,4.22
2022-10-18T12:45:35.487Z,3.92
2022-10-18T12:48:06.952Z,1.80
2022-10-18T12:50:40.692Z,2.77
2022-10-18T12:53:12.909Z,1.85
2022-10-18T12:55:46.128Z,2.58
2022-10-18T12:58:35.689Z,2.03
2022-10-18T13:01:06.148Z,2.90
2022-10-18T13:03:51.196Z,3.27
2022-10-18T13:06:22.717Z,3.42
2022-10-18T13:09:16.017Z,3.60
2022-10-18T13:11:43.691Z,3.20
2022-10-18T13:15:05.684Z,1.83
2022-10-18T13:18:22.655Z,2.03
2022-10-18T13:21:10.158Z,2.92
2022-10-18T13:23:50.951Z,2.50
2022-10-18T13:26:38.499Z,7.55
2022-10-18T13:29:14.265Z,2.63
2022-10-18T13:31:54.842Z,1.93
2022-10-18T13:34:49.607Z,2.72
2022-10-18T13:37:16.259Z,3.53
2022-10-18T13:39:43.065Z,8.07
2022-10-18T13:42:43.387Z,5.97
2022-10-18T13:45:35.998Z,5.40
2022-10-18T13:48:30.028Z,2.08
2022-10-18T13:51:50.247Z,3.75
2022-10-18T13:55:09.210Z,2.78
2022-10-18T13:57:53.597Z,2.88
2022-10-18T14:00:58.396Z,1.97
2022-10-18T14:04:13.034Z,8.30
2022-10-18T14:06:49.101Z,2.40
2022-10-18T14:12:49.102Z,2.63
2022-10-18T14:15:21.049Z,2.87
2022-10-18T14:23:57.977Z,3.45
2022-10-18T14:26:24.744Z,4.10
2022-10-18T14:29:12.543Z,7.50
2022-10-18T14:31:39.332Z,3.30
2022-10-18T14:34:06.514Z,6.68
2022-10-18T14:36:43.988Z,9.32
2022-10-18T14:39:22.860Z,4.28
2022-10-18T14:41:53.518Z,4.93
2022-10-18T14:44:26.619Z,4.80
2022-10-18T14:47:27.190Z,4.90
2022-10-18T14:49:54.712Z,6.47
2022-10-18T14:52:29.456Z,7.93
2022-10-18T14:55:01.414Z,7.50
2022-10-18T14:57:33.334Z,3.65
2022-10-18T15:00:03.402Z,1.83
2022-10-18T15:02:35.930Z,6.70
2022-10-18T15:05:19.765Z,3.10
2022-10-18T15:07:47.410Z,6.60
2022-10-18T15:10:17.428Z,4.68
2022-10-18T15:13:08.102Z,4.35
2022-10-18T15:15:34.871Z,3.47
2022-10-18T15:18:05.221Z,3.00
2022-10-18T15:20:39.640Z,3.00
2022-10-18T15:23:42.774Z,2.67
2022-10-18T15:26:13.271Z,4.45
2022-10-18T15:28:51.213Z,1.80
2022-10-18T15:31:33.285Z,7.10
2022-10-18T15:34:23.438Z,5.43
2022-10-18T15:36:53.993Z,3.33
2022-10-18T15:39:24.715Z,4.65
2022-10-18T15:42:00.430Z,1.17
2022-10-18T15:44:42.212Z,2.10
2022-10-18T15:47:35.324Z,6.27
2022-10-18T15:50:02.626Z,3.10
2022-10-18T15:52:39.502Z,4.78
2022-10-18T15:55:52.618Z,8.00
2022-10-18T15:58:23.412Z,6.72
2022-10-18T16:00:52.618Z,6.30
2022-10-18T16:03:22.156Z,6.47
2022-10-18T16:05:53.436Z,3.38
2022-10-18T16:08:25.930Z,7.05
2022-10-18T16:10:52.791Z,4.90
2022-10-18T16:13:19.760Z,1.63
2022-10-18T16:15:47.002Z,10.32
2022-10-18T16:18:16.338Z,2.95
2022-10-18T16:20:43.330Z,11.23
2022-10-18T16:23:17.322Z,4.60
2022-10-18T16:25:44.113Z,4.53
2022-10-18T16:28:19.140Z,6.22
2022-10-18T16:30:53.182Z,4.18
2022-10-18T16:33:21.601Z,4.55
2022-10-18T16:35:48.957Z,6.20
2022-10-18T16:38:34.293Z,2.57
2022-10-18T16:41:06.797Z,6.75
2022-10-18T16:43:37.138Z,8.45
2022-10-18T16:46:05.011Z,3.25
2022-10-18T16:48:32.734Z,14.35
2022-10-18T16:51:01.281Z,8.43
2022-10-18T16:53:28.189Z,4.50
2022-10-18T16:56:00.053Z,3.97
2022-10-18T16:58:28.791Z,7.72
2022-10-18T17:00:55.799Z,7.10
2022-10-18T17:03:22.526Z,3.70
2022-10-18T17:05:53.190Z,10.93
2022-10-18T17:08:22.763Z,4.57
2022-10-18T17:10:54.021Z,8.90
2022-10-18T17:13:21.939Z,4.82
2022-10-18T17:15:51.081Z,6.57
2022-10-18T17:18:21.729Z,5.75
2022-10-18T17:20:50.470Z,4.05
2022-10-18T17:23:18.811Z,5.70
2022-10-18T17:25:57.852Z,7.18
2022-10-18T17:28:33.222Z,7.63
2022-10-18T17:31:02.265Z,4.80
2022-10-18T17:33:32.847Z,8.45
2022-10-18T17:35:59.443Z,4.32
2022-10-18T17:38:28.129Z,11.70
2022-10-18T17:40:54.884Z,7.67
2022-10-18T17:43:21.482Z,8.57
2022-10-18T17:45:55.296Z,7.82
2022-10-18T17:48:22.723Z,16.00
2022-10-18T17:50:49.470Z,7.38
2022-10-18T17:53:18.415Z,5.53
2022-10-18T17:55:45.166Z,6.75
2022-10-18T17:58:12.537Z,7.32
2022-10-18T18:00:41.136Z,5.85
2022-10-18T18:03:08.066Z,10.02
2022-10-18T18:05:34.798Z,7.50
2022-10-18T18:08:04.073Z,7.10
2022-10-18T18:10:33.935Z,8.55
2022-10-18T18:13:01.521Z,4.60
2022-10-18T18:15:28.265Z,7.97
2022-10-18T18:17:57.411Z,4.60
2022-10-18T18:20:26.943Z,4.93
2022-10-18T18:22:55.589Z,5.63
2022-10-18T18:25:22.715Z,7.72
2022-10-18T18:27:51.954Z,5.57
2022-10-18T18:30:18.877Z,9.73
2022-10-18T18:32:45.788Z,5.43
2022-10-18T18:35:12.652Z,15.35
2022-10-18T18:37:40.664Z,21.50
2022-10-18T18:40:10.515Z,21.20
2022-10-18T18:42:37.114Z,16.37
2022-10-18T18:45:05.262Z,17.88
2022-10-18T18:47:35.626Z,14.77
2022-10-18T18:50:07.913Z,9.20
2022-10-18T18:52:35.016Z,8.68
2022-10-18T18:55:01.897Z,8.53
2022-10-18T18:57:28.557Z,8.70
2022-10-18T18:59:55.131Z,9.38
2022-10-18T19:02:22.015Z,6.35
2022-10-18T19:04:53.769Z,13.10
2022-10-18T19:07:20.609Z,8.47
2022-10-18T19:09:50.739Z,4.50
2022-10-18T19:12:22.419Z,8.75
2022-10-18T19:14:49.328Z,9.05
2022-10-18T19:17:16.245Z,6.00
2022-10-18T19:19:45.892Z,6.57
2022-10-18T19:22:15.221Z,8.45
2022-10-18T19:24:44.311Z,7.68
2022-10-18T19:27:16.656Z,7.75
2022-10-18T19:29:46.560Z,7.35
2022-10-18T19:32:15.066Z,13.90
2022-10-18T19:34:41.771Z,10.52
2022-10-18T19:37:13.194Z,10.60
2022-10-18T19:39:39.866Z,15.88
2022-10-18T19:42:09.995Z,16.00
2022-10-18T19:44:37.418Z,12.17
2022-10-18T19:47:05.906Z,14.40
2022-10-18T19:49:35.305Z,9.68
2022-10-18T19:52:02.149Z,9.55
2022-10-18T19:54:29.062Z,11.05
2022-10-18T19:56:56.008Z,10.83
2022-10-18T19:59:24.874Z,14.10
2022-10-18T20:01:51.796Z,11.65
2022-10-18T20:04:18.372Z,9.35
2022-10-18T20:06:44.964Z,9.13
2022-10-18T20:09:16.088Z,12.30
2022-10-18T20:11:46.226Z,11.05
2022-10-18T20:14:12.907Z,12.93
2022-10-18T20:16:42.656Z,11.23
2022-10-18T20:19:10.639Z,8.82
2022-10-18T20:21:37.283Z,8.77
2022-10-18T20:24:12.430Z,11.10
2022-10-18T20:26:40.693Z,12.52
2022-10-18T20:29:08.284Z,10.68
2022-10-18T20:31:38.658Z,9.23
2022-10-18T20:34:11.751Z,13.60
2022-10-18T20:36:38.948Z,11.48
2022-10-18T20:39:07.061Z,10.80
2022-10-18T20:41:40.949Z,10.57
2022-10-18T20:44:14.952Z,14.25
2022-10-18T20:46:43.181Z,12.10
2022-10-18T20:49:13.604Z,10.07
2022-10-18T20:51:40.703Z,10.73
2022-10-18T20:54:09.634Z,14.52
2022-10-18T20:56:39.478Z,11.07
2022-10-18T20:59:10.093Z,11.83
2022-10-18T21:01:38.702Z,15.70
2022-10-18T21:04:07.810Z,11.48
2022-10-18T21:06:37.129Z,9.43
2022-10-18T21:09:07.369Z,12.18
2022-10-18T21:11:42.477Z,12.00
2022-10-18T21:14:16.280Z,13.73
2022-10-18T21:16:43.839Z,9.25
2022-10-18T21:19:16.377Z,11.52
2022-10-18T21:21:45.019Z,10.05
2022-10-18T21:24:13.606Z,11.47
2022-10-18T21:26:40.996Z,10.77
2022-10-18T21:29:08.388Z,7.97
2022-10-18T21:31:39.124Z,8.93
2022-10-18T21:34:13.208Z,8.65
2022-10-18T21:36:41.366Z,12.57
2022-10-18T21:39:12.193Z,14.63
2022-10-18T21:41:42.723Z,12.88
2022-10-18T21:44:11.281Z,11.25
2022-10-18T21:46:39.474Z,18.17
2022-10-18T21:49:07.294Z,15.33
2022-10-18T21:51:34.141Z,15.45
2022-10-18T21:54:00.804Z,14.50
2022-10-18T21:56:32.570Z,14.30
2022-10-18T21:59:02.753Z,11.13
2022-10-18T22:01:32.586Z,13.17
2022-10-18T22:04:00.763Z,16.10
2022-10-18T22:06:31.521Z,21.70
2022-10-18T22:09:05.602Z,15.65
2022-10-18T22:11:35.359Z,15.32
2022-10-18T22:14:02.068Z,13.67
2022-10-18T22:16:29.279Z,14.43
2022-10-18T22:19:01.418Z,12.18
2022-10-18T22:21:28.458Z,12.05
2022-10-18T22:23:59.537Z,13.70
2022-10-18T22:26:33.597Z,14.87
2022-10-18T22:29:03.454Z,9.77
2022-10-18T22:31:33.098Z,21.27
2022-10-18T22:34:06.285Z,10.57
2022-10-18T22:36:33.741Z,13.00
2022-10-18T22:39:00.752Z,16.57
2022-10-18T22:41:27.489Z,13.10
2022-10-18T22:43:56.428Z,16.23
2022-10-18T22:46:26.111Z,20.95
2022-10-18T22:48:53.051Z,32.83
2022-10-18T22:51:19.730Z,17.20
2022-10-18T22:53:46.683Z,10.65
2022-10-18T22:56:16.303Z,16.95
2022-10-18T22:58:43.266Z,18.85
2022-10-18T23:01:15.979Z,15.07
2022-10-18T23:03:42.856Z,15.63
2022-10-18T23:06:31.188Z,20.52
2022-10-18T23:09:00.485Z,16.88
2022-10-18T23:11:28.682Z,14.27
2022-10-18T23:13:55.321Z,18.17
2022-10-18T23:16:22.195Z,11.40
2022-10-18T23:18:51.238Z,11.82
2022-10-18T23:21:18.835Z,13.30
2022-10-18T23:23:45.602Z,13.13
2022-10-18T23:26:18.165Z,12.98
2022-10-18T23:28:46.918Z,10.53
2022-10-18T23:31:18.166Z,9.68
2022-10-18T23:33:46.572Z,7.43
2022-10-18T23:36:13.689Z,8.73
2022-10-18T23:38:41.165Z,10.57
2022-10-18T23:41:09.896Z,10.23
2022-10-18T23:43:36.623Z,10.70
2022-10-18T23:46:03.678Z,9.98
2022-10-18T23:48:30.451Z,11.00
2022-10-18T23:50:57.336Z,13.30
2022-10-18T23:53:26.460Z,9.90
2022-10-18T23:56:00.825Z,11.60
2022-10-18T23:58:30.124Z,10.27
